sensor_id;sensor_type;location;lat;lon;timestamp;temperature;humidity
48604;DHT22;32708;51.212;6.788;2023-04-01T00:01:44;10.90;99.90
48604;DHT22;32708;51.212;6.788;2023-04-01T00:04:10;11.20;99.90
48604;DHT22;32708;51.212;6.788;2023-04-01T00:06:39;10.80;99.90
48604;DHT22;32708;51.212;6.788;2023-04-01T00:09:05;10.70;99.90
48604;DHT22;32708;51.212;6.788;2023-04-01T00:11:32;10.70;99.90
48604;DHT22;32708;51.212;6.788;2023-04-01T00:13:58;11.00;99.90
48604;DHT22;32708;51.212;6.788;2023-04-01T00:16:28;10.60;99.90
48604;DHT22;32708;51.212;6.788;2023-04-01T00:18:54;10.70;99.90
48604;DHT22;32708;51.212;6.788;2023-04-01T00:21:21;11.00;99.90
48604;DHT22;32708;51.212;6.788;2023-04-01T00:23:49;10.80;99.90
48604;DHT22;32708;51.212;6.788;2023-04-01T00:26:15;10.90;99.90
48604;DHT22;32708;51.212;6.788;2023-04-01T00:28:48;11.10;99.90
48604;DHT22;32708;51.212;6.788;2023-04-01T00:31:14;10.80;99.90
48604;DHT22;32708;51.212;6.788;2023-04-01T00:33:40;10.70;99.90
48604;DHT22;32708;51.212;6.788;2023-04-01T00:36:14;10.70;99.90
48604;DHT22;32708;51.212;6.788;2023-04-01T00:38:42;10.70;99.90
48604;DHT22;32708;51.212;6.788;2023-04-01T00:41:09;10.70;99.90
48604;DHT22;32708;51.212;6.788;2023-04-01T00:43:41;10.70;99.90
48604;DHT22;32708;51.212;6.788;2023-04-01T00:46:07;10.80;99.90
48604;DHT22;32708;51.212;6.788;2023-04-01T00:48:38;10.70;99.90
48604;DHT22;32708;51.212;6.788;2023-04-01T00:51:14;10.70;99.90
48604;DHT22;32708;51.212;6.788;2023-04-01T00:53:45;10.70;99.90
48604;DHT22;32708;51.212;6.788;2023-04-01T00:56:34;10.70;99.90
48604;DHT22;32708;51.212;6.788;2023-04-01T00:59:08;10.80;99.90
48604;DHT22;32708;51.212;6.788;2023-04-01T01:01:37;10.70;99.90
48604;DHT22;32708;51.212;6.788;2023-04-01T01:04:03;10.70;99.90
48604;DHT22;32708;51.212;6.788;2023-04-01T01:06:46;10.80;99.90
48604;DHT22;32708;51.212;6.788;2023-04-01T01:37:25;10.80;99.90
48604;DHT22;32708;51.212;6.788;2023-04-01T01:40:04;10.70;99.90
48604;DHT22;32708;51.212;6.788;2023-04-01T01:42:37;10.70;99.90
48604;DHT22;32708;51.212;6.788;2023-04-01T01:45:06;10.70;99.90
48604;DHT22;32708;51.212;6.788;2023-04-01T01:47:35;10.70;99.90
48604;DHT22;32708;51.212;6.788;2023-04-01T01:50:05;10.80;99.90
48604;DHT22;32708;51.212;6.788;2023-04-01T01:52:35;10.70;99.90
48604;DHT22;32708;51.212;6.788;2023-04-01T01:55:01;10.70;99.90
48604;DHT22;32708;51.212;6.788;2023-04-01T01:57:39;10.70;99.90
48604;DHT22;32708;51.212;6.788;2023-04-01T02:00:13;10.70;99.90
48604;DHT22;32708;51.212;6.788;2023-04-01T02:02:45;10.60;99.90
48604;DHT22;32708;51.212;6.788;2023-04-01T02:05:19;10.50;99.90
48604;DHT22;32708;51.212;6.788;2023-04-01T02:08:05;10.60;99.90
48604;DHT22;32708;51.212;6.788;2023-04-01T02:10:37;10.70;99.90
48604;DHT22;32708;51.212;6.788;2023-04-01T02:13:15;10.50;99.90
48604;DHT22;32708;51.212;6.788;2023-04-01T02:15:47;10.50;99.90
48604;DHT22;32708;51.212;6.788;2023-04-01T02:18:16;10.70;99.90
48604;DHT22;32708;51.212;6.788;2023-04-01T02:20:44;10.50;99.90
48604;DHT22;32708;51.212;6.788;2023-04-01T02:23:12;10.40;99.90
48604;DHT22;32708;51.212;6.788;2023-04-01T02:25:42;10.40;99.90
48604;DHT22;32708;51.212;6.788;2023-04-01T02:28:10;10.40;99.90
48604;DHT22;32708;51.212;6.788;2023-04-01T02:30:41;10.30;99.90
48604;DHT22;32708;51.212;6.788;2023-04-01T02:33:08;10.40;99.90
48604;DHT22;32708;51.212;6.788;2023-04-01T02:35:38;10.60;99.90
48604;DHT22;32708;51.212;6.788;2023-04-01T02:38:05;10.40;99.90
48604;DHT22;32708;51.212;6.788;2023-04-01T02:40:42;10.40;99.90
48604;DHT22;32708;51.212;6.788;2023-04-01T02:43:08;10.50;99.90
48604;DHT22;32708;51.212;6.788;2023-04-01T02:45:35;10.50;99.90
48604;DHT22;32708;51.212;6.788;2023-04-01T02:48:02;10.30;99.90
48604;DHT22;32708;51.212;6.788;2023-04-01T02:50:28;10.30;99.90
48604;DHT22;32708;51.212;6.788;2023-04-01T02:52:54;10.40;99.90
48604;DHT22;32708;51.212;6.788;2023-04-01T02:55:20;10.30;99.90
48604;DHT22;32708;51.212;6.788;2023-04-01T02:57:46;10.30;99.90
48604;DHT22;32708;51.212;6.788;2023-04-01T03:00:13;10.30;99.90
48604;DHT22;32708;51.212;6.788;2023-04-01T03:02:39;10.30;99.90
48604;DHT22;32708;51.212;6.788;2023-04-01T03:05:05;10.50;99.90
48604;DHT22;32708;51.212;6.788;2023-04-01T03:07:31;10.50;99.90
48604;DHT22;32708;51.212;6.788;2023-04-01T03:09:58;10.40;99.90
48604;DHT22;32708;51.212;6.788;2023-04-01T03:12:24;10.40;99.90
48604;DHT22;32708;51.212;6.788;2023-04-01T03:14:51;10.40;99.90
48604;DHT22;32708;51.212;6.788;2023-04-01T03:17:17;10.50;99.90
48604;DHT22;32708;51.212;6.788;2023-04-01T03:19:43;10.40;99.90
48604;DHT22;32708;51.212;6.788;2023-04-01T03:22:11;10.40;99.90
48604;DHT22;32708;51.212;6.788;2023-04-01T03:24:37;10.50;99.90
48604;DHT22;32708;51.212;6.788;2023-04-01T03:27:03;10.40;99.90
48604;DHT22;32708;51.212;6.788;2023-04-01T03:29:29;10.70;99.90
48604;DHT22;32708;51.212;6.788;2023-04-01T03:31:55;10.40;99.90
48604;DHT22;32708;51.212;6.788;2023-04-01T03:34:24;10.60;99.90
48604;DHT22;32708;51.212;6.788;2023-04-01T03:36:51;10.50;99.90
48604;DHT22;32708;51.212;6.788;2023-04-01T03:39:18;10.80;99.90
48604;DHT22;32708;51.212;6.788;2023-04-01T03:41:45;10.40;99.90
48604;DHT22;32708;51.212;6.788;2023-04-01T03:44:11;10.40;99.90
48604;DHT22;32708;51.212;6.788;2023-04-01T03:46:38;10.40;99.90
48604;DHT22;32708;51.212;6.788;2023-04-01T03:49:09;10.40;99.90
48604;DHT22;32708;51.212;6.788;2023-04-01T03:51:42;10.50;99.90
48604;DHT22;32708;51.212;6.788;2023-04-01T03:54:09;10.30;99.90
48604;DHT22;32708;51.212;6.788;2023-04-01T03:56:36;10.40;99.90
48604;DHT22;32708;51.212;6.788;2023-04-01T03:59:06;10.40;99.90
48604;DHT22;32708;51.212;6.788;2023-04-01T04:01:33;10.40;99.90
48604;DHT22;32708;51.212;6.788;2023-04-01T04:03:59;10.30;99.90
48604;DHT22;32708;51.212;6.788;2023-04-01T04:06:27;10.40;99.90
48604;DHT22;32708;51.212;6.788;2023-04-01T04:08:53;10.50;99.90
48604;DHT22;32708;51.212;6.788;2023-04-01T04:11:21;10.50;99.90
48604;DHT22;32708;51.212;6.788;2023-04-01T04:13:48;10.50;99.90
48604;DHT22;32708;51.212;6.788;2023-04-01T04:16:16;10.50;99.90
48604;DHT22;32708;51.212;6.788;2023-04-01T04:18:46;10.80;99.90
48604;DHT22;32708;51.212;6.788;2023-04-01T04:21:13;10.40;99.90
48604;DHT22;32708;51.212;6.788;2023-04-01T04:23:42;10.40;99.90
48604;DHT22;32708;51.212;6.788;2023-04-01T04:26:11;10.40;99.90
48604;DHT22;32708;51.212;6.788;2023-04-01T04:28:38;10.50;99.90
48604;DHT22;32708;51.212;6.788;2023-04-01T04:31:05;10.30;99.90
48604;DHT22;32708;51.212;6.788;2023-04-01T04:33:34;10.40;99.90
48604;DHT22;32708;51.212;6.788;2023-04-01T04:36:01;10.40;99.90
48604;DHT22;32708;51.212;6.788;2023-04-01T04:38:28;10.40;99.90
48604;DHT22;32708;51.212;6.788;2023-04-01T04:40:57;10.50;99.90
48604;DHT22;32708;51.212;6.788;2023-04-01T04:43:23;10.40;99.90
48604;DHT22;32708;51.212;6.788;2023-04-01T04:45:50;10.40;99.90
48604;DHT22;32708;51.212;6.788;2023-04-01T04:48:17;10.50;99.90
48604;DHT22;32708;51.212;6.788;2023-04-01T04:50:49;10.40;99.90
48604;DHT22;32708;51.212;6.788;2023-04-01T04:53:18;10.30;99.90
48604;DHT22;32708;51.212;6.788;2023-04-01T04:55:48;10.40;99.90
48604;DHT22;32708;51.212;6.788;2023-04-01T04:58:38;10.50;99.90
48604;DHT22;32708;51.212;6.788;2023-04-01T05:01:12;10.40;99.90
48604;DHT22;32708;51.212;6.788;2023-04-01T05:03:40;10.30;99.90
48604;DHT22;32708;51.212;6.788;2023-04-01T05:06:08;10.40;99.90
48604;DHT22;32708;51.212;6.788;2023-04-01T05:08:35;10.50;99.90
48604;DHT22;32708;51.212;6.788;2023-04-01T05:11:02;10.20;99.90
48604;DHT22;32708;51.212;6.788;2023-04-01T05:13:29;10.40;99.90
48604;DHT22;32708;51.212;6.788;2023-04-01T05:15:56;10.80;99.90
48604;DHT22;32708;51.212;6.788;2023-04-01T05:18:23;10.50;99.90
48604;DHT22;32708;51.212;6.788;2023-04-01T05:20:51;10.40;99.90
48604;DHT22;32708;51.212;6.788;2023-04-01T05:23:21;10.30;99.90
48604;DHT22;32708;51.212;6.788;2023-04-01T05:25:49;10.30;99.90
48604;DHT22;32708;51.212;6.788;2023-04-01T05:28:16;10.30;99.90
48604;DHT22;32708;51.212;6.788;2023-04-01T05:30:45;10.20;99.90
48604;DHT22;32708;51.212;6.788;2023-04-01T05:33:21;10.30;99.90
48604;DHT22;32708;51.212;6.788;2023-04-01T05:35:47;10.30;99.90
48604;DHT22;32708;51.212;6.788;2023-04-01T05:38:13;10.40;99.90
48604;DHT22;32708;51.212;6.788;2023-04-01T05:40:39;10.40;99.90
48604;DHT22;32708;51.212;6.788;2023-04-01T05:43:06;10.40;99.90
48604;DHT22;32708;51.212;6.788;2023-04-01T05:45:32;10.40;99.90
48604;DHT22;32708;51.212;6.788;2023-04-01T05:48:21;10.40;99.90
48604;DHT22;32708;51.212;6.788;2023-04-01T05:50:47;10.40;99.90
48604;DHT22;32708;51.212;6.788;2023-04-01T05:53:13;10.40;99.90
48604;DHT22;32708;51.212;6.788;2023-04-01T05:55:42;10.40;99.90
48604;DHT22;32708;51.212;6.788;2023-04-01T05:58:08;10.40;99.90
48604;DHT22;32708;51.212;6.788;2023-04-01T06:00:35;10.40;99.90
48604;DHT22;32708;51.212;6.788;2023-04-01T06:03:01;10.40;99.90
48604;DHT22;32708;51.212;6.788;2023-04-01T06:05:30;10.30;99.90
48604;DHT22;32708;51.212;6.788;2023-04-01T06:08:10;10.20;99.90
48604;DHT22;32708;51.212;6.788;2023-04-01T06:19:09;10.20;99.90
48604;DHT22;32708;51.212;6.788;2023-04-01T06:32:31;10.20;99.90
48604;DHT22;32708;51.212;6.788;2023-04-01T06:58:33;10.30;99.90
48604;DHT22;32708;51.212;6.788;2023-04-01T07:01:04;10.30;99.90
48604;DHT22;32708;51.212;6.788;2023-04-01T07:06:39;10.30;99.90
48604;DHT22;32708;51.212;6.788;2023-04-01T07:09:17;10.40;99.90
48604;DHT22;32708;51.212;6.788;2023-04-01T07:12:32;10.40;99.90
48604;DHT22;32708;51.212;6.788;2023-04-01T07:15:32;10.30;99.90
48604;DHT22;32708;51.212;6.788;2023-04-01T07:18:32;10.30;99.90
48604;DHT22;32708;51.212;6.788;2023-04-01T07:21:01;10.30;99.90
48604;DHT22;32708;51.212;6.788;2023-04-01T07:23:38;10.30;99.90
48604;DHT22;32708;51.212;6.788;2023-04-01T07:26:24;10.40;99.90
48604;DHT22;32708;51.212;6.788;2023-04-01T07:28:54;10.50;99.90
48604;DHT22;32708;51.212;6.788;2023-04-01T07:35:07;10.50;99.90
48604;DHT22;32708;51.212;6.788;2023-04-01T07:52:35;10.50;99.90
48604;DHT22;32708;51.212;6.788;2023-04-01T07:55:20;10.40;99.90
48604;DHT22;32708;51.212;6.788;2023-04-01T08:12:25;10.50;99.90
48604;DHT22;32708;51.212;6.788;2023-04-01T08:15:34;10.50;99.90
48604;DHT22;32708;51.212;6.788;2023-04-01T08:21:03;10.60;99.90
48604;DHT22;32708;51.212;6.788;2023-04-01T08:23:36;10.60;99.90
48604;DHT22;32708;51.212;6.788;2023-04-01T08:26:23;10.70;99.90
48604;DHT22;32708;51.212;6.788;2023-04-01T08:29:11;10.60;99.90
48604;DHT22;32708;51.212;6.788;2023-04-01T08:34:20;10.70;99.90
48604;DHT22;32708;51.212;6.788;2023-04-01T08:36:57;10.60;99.90
48604;DHT22;32708;51.212;6.788;2023-04-01T08:39:41;10.50;99.90
48604;DHT22;32708;51.212;6.788;2023-04-01T08:42:31;10.60;99.90
48604;DHT22;32708;51.212;6.788;2023-04-01T08:45:35;10.60;99.90
48604;DHT22;32708;51.212;6.788;2023-04-01T08:48:27;10.60;99.90
48604;DHT22;32708;51.212;6.788;2023-04-01T09:03:25;10.70;99.90
48604;DHT22;32708;51.212;6.788;2023-04-01T09:06:04;10.60;99.90
48604;DHT22;32708;51.212;6.788;2023-04-01T09:11:56;10.80;99.90
48604;DHT22;32708;51.212;6.788;2023-04-01T09:15:12;10.80;99.90
48604;DHT22;32708;51.212;6.788;2023-04-01T09:18:06;10.80;99.90
48604;DHT22;32708;51.212;6.788;2023-04-01T09:28:41;10.70;99.90
48604;DHT22;32708;51.212;6.788;2023-04-01T09:40:47;11.00;99.90
48604;DHT22;32708;51.212;6.788;2023-04-01T09:46:23;10.70;99.90
48604;DHT22;32708;51.212;6.788;2023-04-01T10:08:46;10.70;99.90
48604;DHT22;32708;51.212;6.788;2023-04-01T10:23:02;10.80;99.90
48604;DHT22;32708;51.212;6.788;2023-04-01T10:28:37;10.90;99.90
48604;DHT22;32708;51.212;6.788;2023-04-01T10:34:59;10.90;99.90
48604;DHT22;32708;51.212;6.788;2023-04-01T10:37:33;11.00;99.90
48604;DHT22;32708;51.212;6.788;2023-04-01T10:40:51;10.90;99.90
48604;DHT22;32708;51.212;6.788;2023-04-01T10:44:25;10.80;99.90
48604;DHT22;32708;51.212;6.788;2023-04-01T10:56:56;11.00;99.90
48604;DHT22;32708;51.212;6.788;2023-04-01T11:12:09;11.00;99.90
48604;DHT22;32708;51.212;6.788;2023-04-01T11:15:11;11.10;99.90
48604;DHT22;32708;51.212;6.788;2023-04-01T11:21:23;11.00;99.90
48604;DHT22;32708;51.212;6.788;2023-04-01T11:41:14;11.00;99.90
48604;DHT22;32708;51.212;6.788;2023-04-01T11:44:20;11.00;99.90
48604;DHT22;32708;51.212;6.788;2023-04-01T11:50:12;11.10;99.90
48604;DHT22;32708;51.212;6.788;2023-04-01T11:58:38;11.20;99.90
48604;DHT22;32708;51.212;6.788;2023-04-01T12:09:18;11.20;99.90
48604;DHT22;32708;51.212;6.788;2023-04-01T12:12:23;11.30;99.90
48604;DHT22;32708;51.212;6.788;2023-04-01T12:20:56;11.20;99.90
48604;DHT22;32708;51.212;6.788;2023-04-01T12:23:41;11.30;99.90
48604;DHT22;32708;51.212;6.788;2023-04-01T12:45:35;11.40;99.90
48604;DHT22;32708;51.212;6.788;2023-04-01T13:03:31;11.60;99.90
48604;DHT22;32708;51.212;6.788;2023-04-01T13:06:02;11.70;99.90
48604;DHT22;32708;51.212;6.788;2023-04-01T13:11:07;11.70;99.90
48604;DHT22;32708;51.212;6.788;2023-04-01T13:13:59;11.60;99.90
48604;DHT22;32708;51.212;6.788;2023-04-01T13:19:24;11.50;99.90
48604;DHT22;32708;51.212;6.788;2023-04-01T13:22:10;11.50;99.90
48604;DHT22;32708;51.212;6.788;2023-04-01T13:24:50;11.50;99.90
48604;DHT22;32708;51.212;6.788;2023-04-01T13:27:21;11.60;99.90
48604;DHT22;32708;51.212;6.788;2023-04-01T13:38:32;11.60;99.90
48604;DHT22;32708;51.212;6.788;2023-04-01T13:44:17;11.50;99.90
48604;DHT22;32708;51.212;6.788;2023-04-01T13:50:05;11.50;99.90
48604;DHT22;32708;51.212;6.788;2023-04-01T13:55:55;11.60;99.90
48604;DHT22;32708;51.212;6.788;2023-04-01T14:01:33;11.80;99.90
48604;DHT22;32708;51.212;6.788;2023-04-01T14:12:04;11.50;99.90
48604;DHT22;32708;51.212;6.788;2023-04-01T14:17:39;11.70;99.90
48604;DHT22;32708;51.212;6.788;2023-04-01T14:32:09;11.80;99.90
48604;DHT22;32708;51.212;6.788;2023-04-01T14:49:01;11.90;99.90
48604;DHT22;32708;51.212;6.788;2023-04-01T14:51:35;12.00;99.90
48604;DHT22;32708;51.212;6.788;2023-04-01T14:54:39;12.00;99.90
48604;DHT22;32708;51.212;6.788;2023-04-01T14:57:13;12.00;99.90
48604;DHT22;32708;51.212;6.788;2023-04-01T15:19:22;11.60;99.90
48604;DHT22;32708;51.212;6.788;2023-04-01T15:21:56;11.70;99.90
48604;DHT22;32708;51.212;6.788;2023-04-01T15:27:21;11.70;99.90
48604;DHT22;32708;51.212;6.788;2023-04-01T15:30:01;11.70;99.90
48604;DHT22;32708;51.212;6.788;2023-04-01T15:35:34;11.50;99.90
48604;DHT22;32708;51.212;6.788;2023-04-01T15:58:17;11.30;99.90
48604;DHT22;32708;51.212;6.788;2023-04-01T16:01:15;11.20;99.90
48604;DHT22;32708;51.212;6.788;2023-04-01T16:06:49;11.00;99.90
48604;DHT22;32708;51.212;6.788;2023-04-01T16:12:45;11.00;99.90
48604;DHT22;32708;51.212;6.788;2023-04-01T16:20:52;11.00;99.90
48604;DHT22;32708;51.212;6.788;2023-04-01T16:23:43;11.10;99.90
48604;DHT22;32708;51.212;6.788;2023-04-01T16:29:27;11.00;99.90
48604;DHT22;32708;51.212;6.788;2023-04-01T16:31:58;11.20;99.90
48604;DHT22;32708;51.212;6.788;2023-04-01T16:34:40;11.20;99.90
48604;DHT22;32708;51.212;6.788;2023-04-01T16:43:12;11.20;99.90
48604;DHT22;32708;51.212;6.788;2023-04-01T16:51:57;11.00;99.90
48604;DHT22;32708;51.212;6.788;2023-04-01T17:02:17;11.00;99.90
48604;DHT22;32708;51.212;6.788;2023-04-01T17:08:21;11.10;99.90
48604;DHT22;32708;51.212;6.788;2023-04-01T17:16:37;11.10;99.90
48604;DHT22;32708;51.212;6.788;2023-04-01T17:27:57;11.10;99.90
48604;DHT22;32708;51.212;6.788;2023-04-01T17:30:44;11.10;99.90
48604;DHT22;32708;51.212;6.788;2023-04-01T17:45:08;10.90;99.90
48604;DHT22;32708;51.212;6.788;2023-04-01T17:48:30;10.90;99.90
48604;DHT22;32708;51.212;6.788;2023-04-01T17:51:06;10.90;99.90
48604;DHT22;32708;51.212;6.788;2023-04-01T17:59:43;10.80;99.90
48604;DHT22;32708;51.212;6.788;2023-04-01T18:02:21;10.90;99.90
48604;DHT22;32708;51.212;6.788;2023-04-01T18:08:15;10.90;99.90
48604;DHT22;32708;51.212;6.788;2023-04-01T18:13:44;10.70;99.90
48604;DHT22;32708;51.212;6.788;2023-04-01T18:19:31;10.70;99.90
48604;DHT22;32708;51.212;6.788;2023-04-01T18:22:19;10.70;99.90
48604;DHT22;32708;51.212;6.788;2023-04-01T18:30:36;10.60;99.90
48604;DHT22;32708;51.212;6.788;2023-04-01T18:33:29;10.60;99.90
48604;DHT22;32708;51.212;6.788;2023-04-01T18:39:03;10.60;99.90
48604;DHT22;32708;51.212;6.788;2023-04-01T18:44:57;10.50;99.90
48604;DHT22;32708;51.212;6.788;2023-04-01T18:48:03;10.50;99.90
48604;DHT22;32708;51.212;6.788;2023-04-01T18:50:43;10.50;99.90
48604;DHT22;32708;51.212;6.788;2023-04-01T18:53:31;10.50;99.90
48604;DHT22;32708;51.212;6.788;2023-04-01T18:56:36;10.60;99.90
48604;DHT22;32708;51.212;6.788;2023-04-01T18:59:21;10.60;99.90
48604;DHT22;32708;51.212;6.788;2023-04-01T19:02:19;10.60;99.90
48604;DHT22;32708;51.212;6.788;2023-04-01T19:07:56;10.60;99.90
48604;DHT22;32708;51.212;6.788;2023-04-01T19:13:57;10.70;99.90
48604;DHT22;32708;51.212;6.788;2023-04-01T19:16:49;10.70;99.90
48604;DHT22;32708;51.212;6.788;2023-04-01T19:19:29;10.60;99.90
48604;DHT22;32708;51.212;6.788;2023-04-01T19:22:43;10.50;99.90
48604;DHT22;32708;51.212;6.788;2023-04-01T19:25:30;10.50;99.90
48604;DHT22;32708;51.212;6.788;2023-04-01T19:31:34;10.60;99.90
48604;DHT22;32708;51.212;6.788;2023-04-01T19:34:35;10.60;99.90
48604;DHT22;32708;51.212;6.788;2023-04-01T19:37:36;10.70;99.90
48604;DHT22;32708;51.212;6.788;2023-04-01T19:46:13;10.60;99.90
48604;DHT22;32708;51.212;6.788;2023-04-01T19:48:59;10.50;99.90
48604;DHT22;32708;51.212;6.788;2023-04-01T19:51:46;10.60;99.90
48604;DHT22;32708;51.212;6.788;2023-04-01T19:54:26;10.50;99.90
48604;DHT22;32708;51.212;6.788;2023-04-01T19:57:17;10.50;99.90
48604;DHT22;32708;51.212;6.788;2023-04-01T20:05:35;10.50;99.90
48604;DHT22;32708;51.212;6.788;2023-04-01T20:08:36;10.20;99.90
48604;DHT22;32708;51.212;6.788;2023-04-01T20:16:08;10.00;99.90
48604;DHT22;32708;51.212;6.788;2023-04-01T20:18:51;10.00;99.90
48604;DHT22;32708;51.212;6.788;2023-04-01T20:21:38;10.00;99.90
48604;DHT22;32708;51.212;6.788;2023-04-01T20:24:47;10.10;99.90
48604;DHT22;32708;51.212;6.788;2023-04-01T20:30:00;10.10;99.90
48604;DHT22;32708;51.212;6.788;2023-04-01T20:41:20;10.00;99.90
48604;DHT22;32708;51.212;6.788;2023-04-01T20:44:12;10.10;99.90
48604;DHT22;32708;51.212;6.788;2023-04-01T20:49:42;10.20;99.90
48604;DHT22;32708;51.212;6.788;2023-04-01T20:54:43;10.50;99.90
48604;DHT22;32708;51.212;6.788;2023-04-01T21:06:01;10.60;99.90
48604;DHT22;32708;51.212;6.788;2023-04-01T21:11:20;10.70;99.90
48604;DHT22;32708;51.212;6.788;2023-04-01T21:22:29;10.50;99.90
48604;DHT22;32708;51.212;6.788;2023-04-01T21:44:36;10.30;99.90
48604;DHT22;32708;51.212;6.788;2023-04-01T21:47:14;10.30;99.90
48604;DHT22;32708;51.212;6.788;2023-04-01T21:52:33;10.20;99.90
48604;DHT22;32708;51.212;6.788;2023-04-01T21:58:28;10.30;99.90
48604;DHT22;32708;51.212;6.788;2023-04-01T22:01:12;10.10;99.90
48604;DHT22;32708;51.212;6.788;2023-04-01T22:04:27;10.00;99.90
48604;DHT22;32708;51.212;6.788;2023-04-01T22:07:17;9.80;99.90
48604;DHT22;32708;51.212;6.788;2023-04-01T22:10:02;9.80;99.90
48604;DHT22;32708;51.212;6.788;2023-04-01T22:12:42;9.80;99.90
48604;DHT22;32708;51.212;6.788;2023-04-01T22:16:05;9.70;99.90
48604;DHT22;32708;51.212;6.788;2023-04-01T22:18:46;9.70;99.90
48604;DHT22;32708;51.212;6.788;2023-04-01T22:24:04;9.50;99.90
48604;DHT22;32708;51.212;6.788;2023-04-01T22:32:25;9.40;99.90
48604;DHT22;32708;51.212;6.788;2023-04-01T22:35:20;9.40;99.90
48604;DHT22;32708;51.212;6.788;2023-04-01T22:37:49;9.40;99.90
48604;DHT22;32708;51.212;6.788;2023-04-01T22:40:29;9.30;99.90
48604;DHT22;32708;51.212;6.788;2023-04-01T22:43:13;9.40;99.90
48604;DHT22;32708;51.212;6.788;2023-04-01T22:48:55;9.40;99.90
48604;DHT22;32708;51.212;6.788;2023-04-01T22:51:42;9.40;99.90
48604;DHT22;32708;51.212;6.788;2023-04-01T22:54:32;9.20;99.90
48604;DHT22;32708;51.212;6.788;2023-04-01T22:57:07;9.20;99.90
48604;DHT22;32708;51.212;6.788;2023-04-01T22:59:39;9.10;99.90
48604;DHT22;32708;51.212;6.788;2023-04-01T23:02:18;9.20;99.90
48604;DHT22;32708;51.212;6.788;2023-04-01T23:04:54;9.20;99.90
48604;DHT22;32708;51.212;6.788;2023-04-01T23:09:57;9.30;99.90
48604;DHT22;32708;51.212;6.788;2023-04-01T23:12:26;9.10;99.90
48604;DHT22;32708;51.212;6.788;2023-04-01T23:14:58;9.10;99.90
48604;DHT22;32708;51.212;6.788;2023-04-01T23:17:39;9.20;99.90
48604;DHT22;32708;51.212;6.788;2023-04-01T23:29:27;9.10;99.90
48604;DHT22;32708;51.212;6.788;2023-04-01T23:32:03;8.90;99.90
48604;DHT22;32708;51.212;6.788;2023-04-01T23:34:32;8.90;99.90
48604;DHT22;32708;51.212;6.788;2023-04-01T23:37:05;8.80;99.90
48604;DHT22;32708;51.212;6.788;2023-04-01T23:39:42;8.80;99.90
48604;DHT22;32708;51.212;6.788;2023-04-01T23:45:00;8.70;99.90
48604;DHT22;32708;51.212;6.788;2023-04-01T23:47:35;8.60;99.90
48604;DHT22;32708;51.212;6.788;2023-04-01T23:50:10;8.60;99.90
48604;DHT22;32708;51.212;6.788;2023-04-01T23:52:46;8.70;99.90
48604;DHT22;32708;51.212;6.788;2023-04-01T23:55:24;8.70;99.90
